sensor_id;sensor_type;location;lat;lon;timestamp;temperature;humidity
25154;DHT22;47555;51.038;6.280;2022-12-26T00:01:44;11.20;99.90
25154;DHT22;47555;51.038;6.280;2022-12-26T00:04:10;11.20;99.90
25154;DHT22;47555;51.038;6.280;2022-12-26T00:06:35;11.20;99.90
25154;DHT22;47555;51.038;6.280;2022-12-26T00:09:03;11.20;99.90
25154;DHT22;47555;51.038;6.280;2022-12-26T00:11:29;11.20;99.90
25154;DHT22;47555;51.038;6.280;2022-12-26T00:13:56;11.20;99.90
25154;DHT22;47555;51.038;6.280;2022-12-26T00:16:23;11.30;99.90
25154;DHT22;47555;51.038;6.280;2022-12-26T00:18:49;11.30;99.90
25154;DHT22;47555;51.038;6.280;2022-12-26T00:21:16;11.30;99.90
25154;DHT22;47555;51.038;6.280;2022-12-26T00:23:42;11.40;99.90
25154;DHT22;47555;51.038;6.280;2022-12-26T00:26:11;11.40;99.90
25154;DHT22;47555;51.038;6.280;2022-12-26T00:28:37;11.40;99.90
25154;DHT22;47555;51.038;6.280;2022-12-26T00:31:05;11.40;99.90
25154;DHT22;47555;51.038;6.280;2022-12-26T00:33:32;11.50;99.90
25154;DHT22;47555;51.038;6.280;2022-12-26T00:36:05;11.50;99.90
25154;DHT22;47555;51.038;6.280;2022-12-26T00:38:33;11.50;99.90
25154;DHT22;47555;51.038;6.280;2022-12-26T00:40:59;11.50;99.90
25154;DHT22;47555;51.038;6.280;2022-12-26T00:43:24;11.50;99.90
25154;DHT22;47555;51.038;6.280;2022-12-26T00:45:50;11.50;99.90
25154;DHT22;47555;51.038;6.280;2022-12-26T00:48:15;11.50;99.90
25154;DHT22;47555;51.038;6.280;2022-12-26T00:50:41;11.50;99.90
25154;DHT22;47555;51.038;6.280;2022-12-26T00:53:06;11.50;99.90
25154;DHT22;47555;51.038;6.280;2022-12-26T00:55:32;11.50;99.90
25154;DHT22;47555;51.038;6.280;2022-12-26T00:57:57;11.50;99.90
25154;DHT22;47555;51.038;6.280;2022-12-26T01:00:23;11.60;99.90
25154;DHT22;47555;51.038;6.280;2022-12-26T01:02:49;11.60;99.90
25154;DHT22;47555;51.038;6.280;2022-12-26T01:05:14;11.60;99.90
25154;DHT22;47555;51.038;6.280;2022-12-26T01:07:40;11.50;99.90
25154;DHT22;47555;51.038;6.280;2022-12-26T01:10:07;11.50;99.90
25154;DHT22;47555;51.038;6.280;2022-12-26T01:12:33;11.50;99.90
25154;DHT22;47555;51.038;6.280;2022-12-26T01:14:59;11.50;99.90
25154;DHT22;47555;51.038;6.280;2022-12-26T01:17:26;11.60;99.90
25154;DHT22;47555;51.038;6.280;2022-12-26T01:19:53;11.60;99.90
25154;DHT22;47555;51.038;6.280;2022-12-26T01:22:19;11.60;99.90
25154;DHT22;47555;51.038;6.280;2022-12-26T01:24:44;11.60;99.90
25154;DHT22;47555;51.038;6.280;2022-12-26T01:27:10;11.60;99.90
25154;DHT22;47555;51.038;6.280;2022-12-26T01:29:36;11.60;99.90
25154;DHT22;47555;51.038;6.280;2022-12-26T01:32:01;11.50;99.90
25154;DHT22;47555;51.038;6.280;2022-12-26T01:34:27;11.50;99.90
25154;DHT22;47555;51.038;6.280;2022-12-26T01:36:53;11.50;99.90
25154;DHT22;47555;51.038;6.280;2022-12-26T01:39:19;11.50;99.90
25154;DHT22;47555;51.038;6.280;2022-12-26T01:41:44;11.60;99.90
25154;DHT22;47555;51.038;6.280;2022-12-26T01:47:13;11.50;99.90
25154;DHT22;47555;51.038;6.280;2022-12-26T01:49:42;11.50;99.90
25154;DHT22;47555;51.038;6.280;2022-12-26T01:52:12;11.50;99.90
25154;DHT22;47555;51.038;6.280;2022-12-26T01:54:42;11.50;99.90
25154;DHT22;47555;51.038;6.280;2022-12-26T01:57:30;11.40;99.90
25154;DHT22;47555;51.038;6.280;2022-12-26T01:59:57;11.40;99.90
25154;DHT22;47555;51.038;6.280;2022-12-26T02:02:27;11.40;99.90
25154;DHT22;47555;51.038;6.280;2022-12-26T02:04:53;11.40;99.90
25154;DHT22;47555;51.038;6.280;2022-12-26T02:07:40;11.30;99.90
25154;DHT22;47555;51.038;6.280;2022-12-26T02:10:13;11.30;99.90
25154;DHT22;47555;51.038;6.280;2022-12-26T02:12:41;11.30;99.90
25154;DHT22;47555;51.038;6.280;2022-12-26T02:15:10;11.20;99.90
25154;DHT22;47555;51.038;6.280;2022-12-26T02:17:36;11.20;99.90
25154;DHT22;47555;51.038;6.280;2022-12-26T02:20:16;11.20;99.90
25154;DHT22;47555;51.038;6.280;2022-12-26T02:34:26;11.10;99.90
25154;DHT22;47555;51.038;6.280;2022-12-26T02:37:15;11.10;99.90
25154;DHT22;47555;51.038;6.280;2022-12-26T02:42:23;11.10;99.90
25154;DHT22;47555;51.038;6.280;2022-12-26T02:45:18;11.10;99.90
25154;DHT22;47555;51.038;6.280;2022-12-26T02:54:19;11.00;99.90
25154;DHT22;47555;51.038;6.280;2022-12-26T02:57:09;11.00;99.90
25154;DHT22;47555;51.038;6.280;2022-12-26T03:00:02;10.90;99.90
25154;DHT22;47555;51.038;6.280;2022-12-26T03:03:00;10.90;99.90
25154;DHT22;47555;51.038;6.280;2022-12-26T03:06:13;10.90;99.90
25154;DHT22;47555;51.038;6.280;2022-12-26T03:09:04;10.90;99.90
25154;DHT22;47555;51.038;6.280;2022-12-26T03:11:51;10.90;99.90
25154;DHT22;47555;51.038;6.280;2022-12-26T03:14:52;10.90;99.90
25154;DHT22;47555;51.038;6.280;2022-12-26T03:17:29;10.90;99.90
25154;DHT22;47555;51.038;6.280;2022-12-26T03:20:00;10.90;99.90
25154;DHT22;47555;51.038;6.280;2022-12-26T03:22:31;10.90;99.90
25154;DHT22;47555;51.038;6.280;2022-12-26T03:25:02;10.90;99.90
25154;DHT22;47555;51.038;6.280;2022-12-26T03:27:47;10.90;99.90
25154;DHT22;47555;51.038;6.280;2022-12-26T03:30:13;10.80;99.90
25154;DHT22;47555;51.038;6.280;2022-12-26T03:32:58;10.80;99.90
25154;DHT22;47555;51.038;6.280;2022-12-26T03:35:26;10.80;99.90
25154;DHT22;47555;51.038;6.280;2022-12-26T03:38:10;10.80;99.90
25154;DHT22;47555;51.038;6.280;2022-12-26T03:40:52;10.80;99.90
25154;DHT22;47555;51.038;6.280;2022-12-26T03:46:57;10.70;99.90
25154;DHT22;47555;51.038;6.280;2022-12-26T03:49:46;10.70;99.90
25154;DHT22;47555;51.038;6.280;2022-12-26T03:55:45;10.70;99.90
25154;DHT22;47555;51.038;6.280;2022-12-26T03:59:13;10.70;99.90
25154;DHT22;47555;51.038;6.280;2022-12-26T04:02:00;10.60;99.90
25154;DHT22;47555;51.038;6.280;2022-12-26T04:04:48;10.60;99.90
25154;DHT22;47555;51.038;6.280;2022-12-26T04:07:39;10.60;99.90
25154;DHT22;47555;51.038;6.280;2022-12-26T04:10:33;10.60;99.90
25154;DHT22;47555;51.038;6.280;2022-12-26T04:13:54;10.60;99.90
25154;DHT22;47555;51.038;6.280;2022-12-26T04:16:56;10.60;99.90
25154;DHT22;47555;51.038;6.280;2022-12-26T04:19:58;10.50;99.90
25154;DHT22;47555;51.038;6.280;2022-12-26T04:22:57;10.50;99.90
25154;DHT22;47555;51.038;6.280;2022-12-26T04:26:29;10.50;99.90
25154;DHT22;47555;51.038;6.280;2022-12-26T04:28:52;10.50;99.90
25154;DHT22;47555;51.038;6.280;2022-12-26T04:32:12;10.50;99.90
25154;DHT22;47555;51.038;6.280;2022-12-26T04:37:48;10.50;99.90
25154;DHT22;47555;51.038;6.280;2022-12-26T04:40:37;10.40;99.90
25154;DHT22;47555;51.038;6.280;2022-12-26T04:43:24;10.40;99.90
25154;DHT22;47555;51.038;6.280;2022-12-26T04:46:09;10.40;99.90
25154;DHT22;47555;51.038;6.280;2022-12-26T04:48:44;10.40;99.90
25154;DHT22;47555;51.038;6.280;2022-12-26T04:51:29;10.50;99.90
25154;DHT22;47555;51.038;6.280;2022-12-26T04:53:54;10.40;99.90
25154;DHT22;47555;51.038;6.280;2022-12-26T04:56:20;10.40;99.90
25154;DHT22;47555;51.038;6.280;2022-12-26T04:58:45;10.50;99.90
25154;DHT22;47555;51.038;6.280;2022-12-26T05:01:11;10.40;99.90
25154;DHT22;47555;51.038;6.280;2022-12-26T05:03:55;10.50;99.90
25154;DHT22;47555;51.038;6.280;2022-12-26T05:06:39;10.40;99.90
25154;DHT22;47555;51.038;6.280;2022-12-26T05:09:23;10.40;99.90
25154;DHT22;47555;51.038;6.280;2022-12-26T05:12:06;10.40;99.90
25154;DHT22;47555;51.038;6.280;2022-12-26T05:14:32;10.40;99.90
25154;DHT22;47555;51.038;6.280;2022-12-26T05:17:00;10.40;99.90
25154;DHT22;47555;51.038;6.280;2022-12-26T05:19:45;10.40;99.90
25154;DHT22;47555;51.038;6.280;2022-12-26T05:22:31;10.40;99.90
25154;DHT22;47555;51.038;6.280;2022-12-26T05:25:22;10.40;99.90
25154;DHT22;47555;51.038;6.280;2022-12-26T05:28:11;10.40;99.90
25154;DHT22;47555;51.038;6.280;2022-12-26T05:30:56;10.40;99.90
25154;DHT22;47555;51.038;6.280;2022-12-26T05:33:22;10.40;99.90
25154;DHT22;47555;51.038;6.280;2022-12-26T05:36:07;10.40;99.90
25154;DHT22;47555;51.038;6.280;2022-12-26T05:38:34;10.40;99.90
25154;DHT22;47555;51.038;6.280;2022-12-26T05:41:00;10.30;99.90
25154;DHT22;47555;51.038;6.280;2022-12-26T05:43:25;10.30;99.90
25154;DHT22;47555;51.038;6.280;2022-12-26T05:45:51;10.30;99.90
25154;DHT22;47555;51.038;6.280;2022-12-26T05:48:16;10.30;99.90
25154;DHT22;47555;51.038;6.280;2022-12-26T05:50:42;10.30;99.90
25154;DHT22;47555;51.038;6.280;2022-12-26T05:53:07;10.40;99.90
25154;DHT22;47555;51.038;6.280;2022-12-26T05:55:33;10.30;99.90
25154;DHT22;47555;51.038;6.280;2022-12-26T05:57:59;10.30;99.90
25154;DHT22;47555;51.038;6.280;2022-12-26T06:00:25;10.30;99.90
25154;DHT22;47555;51.038;6.280;2022-12-26T06:02:50;10.30;99.90
25154;DHT22;47555;51.038;6.280;2022-12-26T06:05:16;10.30;99.90
25154;DHT22;47555;51.038;6.280;2022-12-26T06:07:42;10.40;99.90
25154;DHT22;47555;51.038;6.280;2022-12-26T06:10:08;10.40;99.90
25154;DHT22;47555;51.038;6.280;2022-12-26T06:12:34;10.30;99.90
25154;DHT22;47555;51.038;6.280;2022-12-26T06:14:59;10.30;99.90
25154;DHT22;47555;51.038;6.280;2022-12-26T06:17:25;10.30;99.90
25154;DHT22;47555;51.038;6.280;2022-12-26T06:19:50;10.20;99.90
25154;DHT22;47555;51.038;6.280;2022-12-26T06:22:16;10.10;99.90
25154;DHT22;47555;51.038;6.280;2022-12-26T06:24:41;10.30;99.90
25154;DHT22;47555;51.038;6.280;2022-12-26T06:27:07;10.30;99.90
25154;DHT22;47555;51.038;6.280;2022-12-26T06:29:32;10.20;99.90
25154;DHT22;47555;51.038;6.280;2022-12-26T06:31:58;10.20;99.90
25154;DHT22;47555;51.038;6.280;2022-12-26T06:34:23;10.20;99.90
25154;DHT22;47555;51.038;6.280;2022-12-26T06:36:49;10.30;99.90
25154;DHT22;47555;51.038;6.280;2022-12-26T06:39:15;10.30;99.90
25154;DHT22;47555;51.038;6.280;2022-12-26T06:41:40;10.30;99.90
25154;DHT22;47555;51.038;6.280;2022-12-26T06:44:06;10.30;99.90
25154;DHT22;47555;51.038;6.280;2022-12-26T06:46:31;10.30;99.90
25154;DHT22;47555;51.038;6.280;2022-12-26T06:48:57;10.30;99.90
25154;DHT22;47555;51.038;6.280;2022-12-26T06:51:24;10.30;99.90
25154;DHT22;47555;51.038;6.280;2022-12-26T06:53:51;10.40;99.90
25154;DHT22;47555;51.038;6.280;2022-12-26T06:56:22;10.30;99.90
25154;DHT22;47555;51.038;6.280;2022-12-26T06:59:00;10.30;99.90
25154;DHT22;47555;51.038;6.280;2022-12-26T07:01:27;10.30;99.90
25154;DHT22;47555;51.038;6.280;2022-12-26T07:03:53;10.30;99.90
25154;DHT22;47555;51.038;6.280;2022-12-26T07:06:20;10.30;99.90
25154;DHT22;47555;51.038;6.280;2022-12-26T07:08:46;10.20;99.90
25154;DHT22;47555;51.038;6.280;2022-12-26T07:11:17;10.10;99.90
25154;DHT22;47555;51.038;6.280;2022-12-26T07:13:43;10.10;99.90
25154;DHT22;47555;51.038;6.280;2022-12-26T07:16:09;10.00;99.90
25154;DHT22;47555;51.038;6.280;2022-12-26T07:18:35;10.00;99.90
25154;DHT22;47555;51.038;6.280;2022-12-26T07:21:07;10.00;99.90
25154;DHT22;47555;51.038;6.280;2022-12-26T07:23:33;9.90;99.90
25154;DHT22;47555;51.038;6.280;2022-12-26T07:25:59;9.90;99.90
25154;DHT22;47555;51.038;6.280;2022-12-26T07:28:25;9.90;99.90
25154;DHT22;47555;51.038;6.280;2022-12-26T07:30:51;9.80;99.90
25154;DHT22;47555;51.038;6.280;2022-12-26T07:33:16;9.80;99.90
25154;DHT22;47555;51.038;6.280;2022-12-26T07:35:42;9.80;99.90
25154;DHT22;47555;51.038;6.280;2022-12-26T07:38:09;9.80;99.90
25154;DHT22;47555;51.038;6.280;2022-12-26T07:40:34;9.80;99.90
25154;DHT22;47555;51.038;6.280;2022-12-26T07:43:00;9.80;99.90
25154;DHT22;47555;51.038;6.280;2022-12-26T07:45:25;9.80;99.90
25154;DHT22;47555;51.038;6.280;2022-12-26T07:47:55;9.80;99.90
25154;DHT22;47555;51.038;6.280;2022-12-26T07:50:22;9.80;99.90
25154;DHT22;47555;51.038;6.280;2022-12-26T07:52:48;9.80;99.90
25154;DHT22;47555;51.038;6.280;2022-12-26T07:55:13;9.80;99.90
25154;DHT22;47555;51.038;6.280;2022-12-26T07:57:39;9.80;99.90
25154;DHT22;47555;51.038;6.280;2022-12-26T08:00:05;9.80;99.90
25154;DHT22;47555;51.038;6.280;2022-12-26T08:02:31;9.80;99.90
25154;DHT22;47555;51.038;6.280;2022-12-26T08:04:56;9.80;99.90
25154;DHT22;47555;51.038;6.280;2022-12-26T08:07:22;9.80;99.90
25154;DHT22;47555;51.038;6.280;2022-12-26T08:09:47;9.80;99.90
25154;DHT22;47555;51.038;6.280;2022-12-26T08:12:13;9.90;99.90
25154;DHT22;47555;51.038;6.280;2022-12-26T08:14:39;9.90;99.90
25154;DHT22;47555;51.038;6.280;2022-12-26T08:17:06;9.90;99.90
25154;DHT22;47555;51.038;6.280;2022-12-26T08:19:32;9.90;99.90
25154;DHT22;47555;51.038;6.280;2022-12-26T08:21:57;9.90;99.90
25154;DHT22;47555;51.038;6.280;2022-12-26T08:24:23;9.90;99.90
25154;DHT22;47555;51.038;6.280;2022-12-26T08:26:48;9.80;99.90
25154;DHT22;47555;51.038;6.280;2022-12-26T08:29:14;9.90;99.90
25154;DHT22;47555;51.038;6.280;2022-12-26T08:31:39;9.80;99.90
25154;DHT22;47555;51.038;6.280;2022-12-26T08:34:05;9.80;99.90
25154;DHT22;47555;51.038;6.280;2022-12-26T08:36:31;9.90;99.90
25154;DHT22;47555;51.038;6.280;2022-12-26T08:38:57;9.90;99.90
25154;DHT22;47555;51.038;6.280;2022-12-26T08:41:23;9.80;99.90
25154;DHT22;47555;51.038;6.280;2022-12-26T08:43:50;9.90;99.90
25154;DHT22;47555;51.038;6.280;2022-12-26T08:46:17;9.90;99.90
25154;DHT22;47555;51.038;6.280;2022-12-26T08:48:43;10.00;99.90
25154;DHT22;47555;51.038;6.280;2022-12-26T08:51:18;10.00;99.90
25154;DHT22;47555;51.038;6.280;2022-12-26T08:53:44;10.10;99.90
25154;DHT22;47555;51.038;6.280;2022-12-26T08:56:13;10.10;99.90
25154;DHT22;47555;51.038;6.280;2022-12-26T08:58:39;10.10;99.90
25154;DHT22;47555;51.038;6.280;2022-12-26T09:01:20;10.20;99.90
25154;DHT22;47555;51.038;6.280;2022-12-26T09:03:46;10.20;99.90
25154;DHT22;47555;51.038;6.280;2022-12-26T09:06:13;10.30;99.90
25154;DHT22;47555;51.038;6.280;2022-12-26T09:08:40;10.30;99.90
25154;DHT22;47555;51.038;6.280;2022-12-26T09:11:10;10.30;99.90
25154;DHT22;47555;51.038;6.280;2022-12-26T09:13:37;10.30;99.90
25154;DHT22;47555;51.038;6.280;2022-12-26T09:16:14;10.40;99.90
25154;DHT22;47555;51.038;6.280;2022-12-26T09:18:40;10.40;99.90
25154;DHT22;47555;51.038;6.280;2022-12-26T09:21:07;10.40;99.90
25154;DHT22;47555;51.038;6.280;2022-12-26T09:23:35;10.50;99.90
25154;DHT22;47555;51.038;6.280;2022-12-26T09:26:21;10.40;99.90
25154;DHT22;47555;51.038;6.280;2022-12-26T09:28:47;10.40;99.90
25154;DHT22;47555;51.038;6.280;2022-12-26T09:31:14;10.40;99.90
25154;DHT22;47555;51.038;6.280;2022-12-26T09:33:40;10.50;99.90
25154;DHT22;47555;51.038;6.280;2022-12-26T09:36:12;10.40;99.90
25154;DHT22;47555;51.038;6.280;2022-12-26T09:38:37;10.50;99.90
25154;DHT22;47555;51.038;6.280;2022-12-26T09:44:04;10.50;99.90
25154;DHT22;47555;51.038;6.280;2022-12-26T09:46:44;10.60;99.90
25154;DHT22;47555;51.038;6.280;2022-12-26T09:49:32;10.60;99.90
25154;DHT22;47555;51.038;6.280;2022-12-26T09:52:03;10.70;99.90
25154;DHT22;47555;51.038;6.280;2022-12-26T09:54:40;10.70;99.90
25154;DHT22;47555;51.038;6.280;2022-12-26T09:57:13;10.80;99.90
25154;DHT22;47555;51.038;6.280;2022-12-26T09:59:54;10.80;99.90
25154;DHT22;47555;51.038;6.280;2022-12-26T10:02:22;10.70;99.90
25154;DHT22;47555;51.038;6.280;2022-12-26T10:04:49;10.70;99.90
25154;DHT22;47555;51.038;6.280;2022-12-26T10:12:39;10.80;99.90
25154;DHT22;47555;51.038;6.280;2022-12-26T10:18:04;10.80;99.90
25154;DHT22;47555;51.038;6.280;2022-12-26T10:23:38;10.80;99.90
25154;DHT22;47555;51.038;6.280;2022-12-26T10:26:28;10.80;99.90
25154;DHT22;47555;51.038;6.280;2022-12-26T10:31:39;10.90;99.90
25154;DHT22;47555;51.038;6.280;2022-12-26T10:36:56;11.00;99.90
25154;DHT22;47555;51.038;6.280;2022-12-26T10:39:38;11.00;99.90
25154;DHT22;47555;51.038;6.280;2022-12-26T10:44:48;10.90;99.90
25154;DHT22;47555;51.038;6.280;2022-12-26T10:47:39;10.90;99.90
25154;DHT22;47555;51.038;6.280;2022-12-26T10:50:05;10.90;99.90
25154;DHT22;47555;51.038;6.280;2022-12-26T10:52:37;10.90;99.90
25154;DHT22;47555;51.038;6.280;2022-12-26T10:55:04;11.00;99.90
25154;DHT22;47555;51.038;6.280;2022-12-26T10:57:33;11.00;99.90
25154;DHT22;47555;51.038;6.280;2022-12-26T11:00:00;11.00;99.90
25154;DHT22;47555;51.038;6.280;2022-12-26T11:02:29;11.00;99.90
25154;DHT22;47555;51.038;6.280;2022-12-26T11:05:13;11.00;99.90
25154;DHT22;47555;51.038;6.280;2022-12-26T11:07:51;11.00;99.90
25154;DHT22;47555;51.038;6.280;2022-12-26T11:10:21;11.00;99.90
25154;DHT22;47555;51.038;6.280;2022-12-26T11:12:53;11.10;99.90
25154;DHT22;47555;51.038;6.280;2022-12-26T11:15:30;11.30;99.90
25154;DHT22;47555;51.038;6.280;2022-12-26T11:18:26;11.40;99.90
25154;DHT22;47555;51.038;6.280;2022-12-26T11:21:28;11.40;99.60
25154;DHT22;47555;51.038;6.280;2022-12-26T11:24:16;11.40;99.90
25154;DHT22;47555;51.038;6.280;2022-12-26T11:26:42;11.30;99.90
25154;DHT22;47555;51.038;6.280;2022-12-26T11:29:21;11.30;99.90
25154;DHT22;47555;51.038;6.280;2022-12-26T11:32:02;11.40;99.90
25154;DHT22;47555;51.038;6.280;2022-12-26T11:34:37;11.50;99.90
25154;DHT22;47555;51.038;6.280;2022-12-26T11:37:22;11.70;99.90
25154;DHT22;47555;51.038;6.280;2022-12-26T11:39:50;11.90;98.80
25154;DHT22;47555;51.038;6.280;2022-12-26T11:42:21;11.80;97.90
25154;DHT22;47555;51.038;6.280;2022-12-26T11:44:47;11.80;98.50
25154;DHT22;47555;51.038;6.280;2022-12-26T11:47:19;11.70;99.20
25154;DHT22;47555;51.038;6.280;2022-12-26T11:50:07;11.60;99.90
25154;DHT22;47555;51.038;6.280;2022-12-26T11:55:26;11.60;99.90
25154;DHT22;47555;51.038;6.280;2022-12-26T11:57:58;11.60;99.90
25154;DHT22;47555;51.038;6.280;2022-12-26T12:00:26;11.60;99.90
25154;DHT22;47555;51.038;6.280;2022-12-26T12:02:52;11.70;99.90
25154;DHT22;47555;51.038;6.280;2022-12-26T12:11:12;11.90;99.90
25154;DHT22;47555;51.038;6.280;2022-12-26T12:13:54;11.80;99.90
25154;DHT22;47555;51.038;6.280;2022-12-26T12:22:21;11.80;99.90
25154;DHT22;47555;51.038;6.280;2022-12-26T12:28:35;11.90;99.90
25154;DHT22;47555;51.038;6.280;2022-12-26T12:36:16;11.60;99.90
25154;DHT22;47555;51.038;6.280;2022-12-26T12:44:29;11.30;99.90
25154;DHT22;47555;51.038;6.280;2022-12-26T13:01:41;10.60;99.90
25154;DHT22;47555;51.038;6.280;2022-12-26T13:06:48;10.40;99.90
25154;DHT22;47555;51.038;6.280;2022-12-26T13:12:00;10.30;99.90
25154;DHT22;47555;51.038;6.280;2022-12-26T13:17:10;10.10;99.90
25154;DHT22;47555;51.038;6.280;2022-12-26T13:19:43;9.90;99.90
25154;DHT22;47555;51.038;6.280;2022-12-26T13:22:13;9.80;99.90
25154;DHT22;47555;51.038;6.280;2022-12-26T13:24:44;9.60;99.90
25154;DHT22;47555;51.038;6.280;2022-12-26T13:29:39;9.40;99.90
25154;DHT22;47555;51.038;6.280;2022-12-26T13:32:16;9.30;99.90
25154;DHT22;47555;51.038;6.280;2022-12-26T13:34:43;9.30;99.90
25154;DHT22;47555;51.038;6.280;2022-12-26T13:40:20;9.10;99.90
25154;DHT22;47555;51.038;6.280;2022-12-26T13:42:50;9.10;99.90
25154;DHT22;47555;51.038;6.280;2022-12-26T13:45:46;9.00;99.90
25154;DHT22;47555;51.038;6.280;2022-12-26T13:55:52;9.00;99.90
25154;DHT22;47555;51.038;6.280;2022-12-26T13:58:54;9.00;99.90
25154;DHT22;47555;51.038;6.280;2022-12-26T14:10:20;8.90;99.90
25154;DHT22;47555;51.038;6.280;2022-12-26T14:21:08;8.90;99.90
25154;DHT22;47555;51.038;6.280;2022-12-26T14:26:37;8.90;99.90
25154;DHT22;47555;51.038;6.280;2022-12-26T14:34:29;8.80;99.90
25154;DHT22;47555;51.038;6.280;2022-12-26T14:45:47;8.70;99.90
25154;DHT22;47555;51.038;6.280;2022-12-26T14:58:43;8.50;99.90
25154;DHT22;47555;51.038;6.280;2022-12-26T15:12:18;8.20;98.60
25154;DHT22;47555;51.038;6.280;2022-12-26T15:15:12;8.10;99.00
25154;DHT22;47555;51.038;6.280;2022-12-26T15:23:31;7.90;97.20
25154;DHT22;47555;51.038;6.280;2022-12-26T15:26:29;7.80;96.80
25154;DHT22;47555;51.038;6.280;2022-12-26T15:32:02;7.60;97.30
25154;DHT22;47555;51.038;6.280;2022-12-26T15:34:54;7.60;97.50
25154;DHT22;47555;51.038;6.280;2022-12-26T15:37:27;7.60;98.70
25154;DHT22;47555;51.038;6.280;2022-12-26T15:48:05;7.40;99.90
25154;DHT22;47555;51.038;6.280;2022-12-26T15:51:07;7.40;99.90
25154;DHT22;47555;51.038;6.280;2022-12-26T15:54:13;7.30;99.90
25154;DHT22;47555;51.038;6.280;2022-12-26T16:02:38;7.30;99.90
25154;DHT22;47555;51.038;6.280;2022-12-26T16:08:16;7.20;99.90
25154;DHT22;47555;51.038;6.280;2022-12-26T16:10:45;7.20;99.90
25154;DHT22;47555;51.038;6.280;2022-12-26T16:15:45;7.10;99.90
25154;DHT22;47555;51.038;6.280;2022-12-26T16:18:30;7.00;99.90
25154;DHT22;47555;51.038;6.280;2022-12-26T16:20:58;7.00;99.90
25154;DHT22;47555;51.038;6.280;2022-12-26T16:23:44;6.90;99.90
25154;DHT22;47555;51.038;6.280;2022-12-26T16:26:21;6.80;99.90
25154;DHT22;47555;51.038;6.280;2022-12-26T16:28:48;6.80;99.90
25154;DHT22;47555;51.038;6.280;2022-12-26T16:31:22;6.70;99.90
25154;DHT22;47555;51.038;6.280;2022-12-26T16:33:50;6.60;99.90
25154;DHT22;47555;51.038;6.280;2022-12-26T16:36:24;6.50;99.90
25154;DHT22;47555;51.038;6.280;2022-12-26T16:38:50;6.40;99.90
25154;DHT22;47555;51.038;6.280;2022-12-26T16:41:23;6.40;99.90
25154;DHT22;47555;51.038;6.280;2022-12-26T16:43:50;6.30;99.90
25154;DHT22;47555;51.038;6.280;2022-12-26T16:46:17;6.30;99.90
25154;DHT22;47555;51.038;6.280;2022-12-26T16:48:45;6.20;99.90
25154;DHT22;47555;51.038;6.280;2022-12-26T16:56:51;6.10;99.90
25154;DHT22;47555;51.038;6.280;2022-12-26T16:59:20;6.10;99.90
25154;DHT22;47555;51.038;6.280;2022-12-26T17:01:54;6.00;99.90
25154;DHT22;47555;51.038;6.280;2022-12-26T17:04:23;6.00;99.90
25154;DHT22;47555;51.038;6.280;2022-12-26T17:07:00;6.00;99.90
25154;DHT22;47555;51.038;6.280;2022-12-26T17:09:29;6.00;99.90
25154;DHT22;47555;51.038;6.280;2022-12-26T17:12:07;5.90;99.90
25154;DHT22;47555;51.038;6.280;2022-12-26T17:14:40;5.90;99.90
25154;DHT22;47555;51.038;6.280;2022-12-26T17:17:31;5.80;99.90
25154;DHT22;47555;51.038;6.280;2022-12-26T17:22:46;5.70;99.30
25154;DHT22;47555;51.038;6.280;2022-12-26T17:25:28;5.60;99.00
25154;DHT22;47555;51.038;6.280;2022-12-26T17:30:36;5.40;98.20
25154;DHT22;47555;51.038;6.280;2022-12-26T17:33:07;5.30;98.60
25154;DHT22;47555;51.038;6.280;2022-12-26T17:35:35;5.20;98.40
25154;DHT22;47555;51.038;6.280;2022-12-26T17:38:03;5.20;98.40
25154;DHT22;47555;51.038;6.280;2022-12-26T17:40:35;5.10;98.80
25154;DHT22;47555;51.038;6.280;2022-12-26T17:45:40;4.90;99.20
25154;DHT22;47555;51.038;6.280;2022-12-26T17:48:06;4.80;99.30
25154;DHT22;47555;51.038;6.280;2022-12-26T17:50:37;4.80;99.10
25154;DHT22;47555;51.038;6.280;2022-12-26T17:53:06;4.70;99.90
25154;DHT22;47555;51.038;6.280;2022-12-26T17:55:32;4.60;99.20
25154;DHT22;47555;51.038;6.280;2022-12-26T17:57:58;4.60;99.10
25154;DHT22;47555;51.038;6.280;2022-12-26T18:00:26;4.50;98.90
25154;DHT22;47555;51.038;6.280;2022-12-26T18:02:52;4.40;98.80
25154;DHT22;47555;51.038;6.280;2022-12-26T18:05:18;4.40;98.70
25154;DHT22;47555;51.038;6.280;2022-12-26T18:07:45;4.30;98.70
25154;DHT22;47555;51.038;6.280;2022-12-26T18:10:19;4.30;98.60
25154;DHT22;47555;51.038;6.280;2022-12-26T18:12:46;4.20;98.70
25154;DHT22;47555;51.038;6.280;2022-12-26T18:15:11;4.20;99.10
25154;DHT22;47555;51.038;6.280;2022-12-26T18:17:37;4.10;99.40
25154;DHT22;47555;51.038;6.280;2022-12-26T18:20:03;4.10;99.80
25154;DHT22;47555;51.038;6.280;2022-12-26T18:22:29;4.10;99.90
25154;DHT22;47555;51.038;6.280;2022-12-26T18:24:55;4.10;99.90
25154;DHT22;47555;51.038;6.280;2022-12-26T18:27:31;4.00;99.90
25154;DHT22;47555;51.038;6.280;2022-12-26T18:29:58;4.00;99.90
25154;DHT22;47555;51.038;6.280;2022-12-26T18:32:25;4.00;99.90
25154;DHT22;47555;51.038;6.280;2022-12-26T18:34:52;4.00;99.90
25154;DHT22;47555;51.038;6.280;2022-12-26T18:37:18;4.00;99.90
25154;DHT22;47555;51.038;6.280;2022-12-26T18:39:44;4.10;99.90
25154;DHT22;47555;51.038;6.280;2022-12-26T18:42:14;4.00;99.90
25154;DHT22;47555;51.038;6.280;2022-12-26T18:44:40;4.00;99.90
25154;DHT22;47555;51.038;6.280;2022-12-26T18:47:12;4.00;99.90
25154;DHT22;47555;51.038;6.280;2022-12-26T18:49:38;4.00;99.90
25154;DHT22;47555;51.038;6.280;2022-12-26T18:52:04;4.00;99.90
25154;DHT22;47555;51.038;6.280;2022-12-26T18:54:29;3.90;99.90
25154;DHT22;47555;51.038;6.280;2022-12-26T18:56:55;3.90;99.90
25154;DHT22;47555;51.038;6.280;2022-12-26T18:59:20;3.90;99.90
25154;DHT22;47555;51.038;6.280;2022-12-26T19:01:46;4.00;99.90
25154;DHT22;47555;51.038;6.280;2022-12-26T19:04:13;3.90;99.90
25154;DHT22;47555;51.038;6.280;2022-12-26T19:06:39;3.80;99.90
25154;DHT22;47555;51.038;6.280;2022-12-26T19:09:04;3.80;99.90
25154;DHT22;47555;51.038;6.280;2022-12-26T19:11:30;3.80;99.90
25154;DHT22;47555;51.038;6.280;2022-12-26T19:13:55;3.70;99.90
25154;DHT22;47555;51.038;6.280;2022-12-26T19:16:21;3.70;99.90
25154;DHT22;47555;51.038;6.280;2022-12-26T19:18:47;3.70;99.90
25154;DHT22;47555;51.038;6.280;2022-12-26T19:21:14;3.60;99.90
25154;DHT22;47555;51.038;6.280;2022-12-26T19:23:41;3.60;99.90
25154;DHT22;47555;51.038;6.280;2022-12-26T19:26:14;3.60;99.90
25154;DHT22;47555;51.038;6.280;2022-12-26T19:28:40;3.60;99.90
25154;DHT22;47555;51.038;6.280;2022-12-26T19:31:12;3.60;99.90
25154;DHT22;47555;51.038;6.280;2022-12-26T19:33:37;3.70;99.90
25154;DHT22;47555;51.038;6.280;2022-12-26T19:36:04;3.60;99.90
25154;DHT22;47555;51.038;6.280;2022-12-26T19:38:30;3.60;99.50
25154;DHT22;47555;51.038;6.280;2022-12-26T19:41:00;3.60;99.10
25154;DHT22;47555;51.038;6.280;2022-12-26T19:43:26;3.70;98.90
25154;DHT22;47555;51.038;6.280;2022-12-26T19:46:07;3.70;98.80
25154;DHT22;47555;51.038;6.280;2022-12-26T19:48:35;3.60;98.60